Huvudsida
METAR-TAF:

METAR-TAF

Flygplatser :

Harbin, Kina

Harbin Taiping International Airport

latitud: 45-45N, longitud: 126-46E, höjd: 143 m

Aktuellt väderrapport

Denna rapport gjordes för 1 timme och 2 minuter sedan, klockan 00:00 UTC
Vind 8 kt från sydväst
Temperatur -24°C
Fuktighet 57%
Tryck 1021 hPa
Sikt 10 km eller mer
Inga moln under 1 500 m eller inga cumulonimbus

METAR: ZYHB 200000Z 22004MPS CAVOK M24/M30 Q1021 NOSIG

Tid: 09:02 (01:02 UTC)

Väderprognos

Denna rapport gjordes för 5 timmar och 54 minuter sedan, klockan 19:08 UTC
Prognos gäller från 20 kl. 00 UTC till 20 kl. 24 UTC
Vind 10 kt från väst i byarna ända upp till 19 kt
Sikt: 6000 m
Spridda moln på en höjd av 3000 ft

TAF: ZYHB 191908Z 2000/2024 26005G10MPS 6000 SCT030 TXM15/06Z TNM26/22Z

Aktuella väderrapporter och prognoser från 4000 flygplatser (METAR- och TAF-rapporter).

De tillgängliga stationerna syns som gula och röda prickar på kartan.

För musen över prickarna för att se namnen på stationerna.

Klicka sedan för att få väderrapporter och prognoser.

För att ändra kartan: Klicka på de gröna knapparna med ett svart kors på för att zooma in; den gröna knappen med ett streck på för att zooma ut; eller på de gröna pilarna för angränsande kartor.


METAR-TAF: